createdAt,value
2022-11-08T00:00:08.229Z,28.30
2022-11-08T00:10:08.199Z,30.40
2022-11-08T00:20:08.217Z,30.50
2022-11-08T00:30:08.236Z,29.40
2022-11-08T00:40:08.227Z,28.00
2022-11-08T00:50:08.241Z,27.30
2022-11-08T01:00:08.241Z,27.60
2022-11-08T01:10:08.261Z,30.70
2022-11-08T01:20:08.248Z,31.50
2022-11-08T01:30:08.237Z,25.00
2022-11-08T01:50:08.244Z,26.90
2022-11-08T02:00:08.252Z,25.50
2022-11-08T02:10:08.256Z,28.60
2022-11-08T02:20:08.255Z,28.60
2022-11-08T02:30:08.264Z,31.50
2022-11-08T02:40:08.290Z,28.00
2022-11-08T02:50:08.284Z,25.20
2022-11-08T03:00:08.278Z,30.70
2022-11-08T03:10:08.261Z,25.20
2022-11-08T03:20:08.298Z,30.10
2022-11-08T03:30:08.275Z,26.10
2022-11-08T03:40:08.303Z,28.90
2022-11-08T03:50:08.269Z,25.80
2022-11-08T04:00:08.324Z,27.70
2022-11-08T04:10:08.294Z,28.10
2022-11-08T04:20:08.291Z,26.50
2022-11-08T04:30:08.415Z,31.10
2022-11-08T04:40:08.300Z,27.70
2022-11-08T04:50:08.300Z,30.20
2022-11-08T05:00:08.330Z,27.80
2022-11-08T05:10:08.323Z,27.60
2022-11-08T05:20:08.319Z,25.80
2022-11-08T05:30:08.314Z,26.20
2022-11-08T05:40:08.341Z,25.30
2022-11-08T05:50:08.324Z,42.60
2022-11-08T06:00:08.326Z,34.70
2022-11-08T06:10:08.337Z,35.70
2022-11-08T06:20:08.380Z,31.70
2022-11-08T06:30:08.346Z,21.00
2022-11-08T06:40:08.349Z,24.10
2022-11-08T06:50:08.361Z,25.40
2022-11-08T07:00:08.353Z,22.80
2022-11-08T07:10:08.350Z,22.90
2022-11-08T07:20:08.379Z,22.20
2022-11-08T07:30:08.366Z,23.10
2022-11-08T07:40:08.351Z,23.90
2022-11-08T07:50:08.378Z,18.00
2022-11-08T08:00:08.441Z,12.90
2022-11-08T08:10:08.389Z,13.60
2022-11-08T08:20:08.380Z,12.00
2022-11-08T08:30:08.415Z,14.70
2022-11-08T08:40:08.392Z,14.50
2022-11-08T08:50:08.392Z,17.00
2022-11-08T09:10:08.403Z,14.20
2022-11-08T09:20:08.434Z,15.60
2022-11-08T09:30:08.418Z,15.10
2022-11-08T09:40:08.475Z,15.40
2022-11-08T09:50:08.427Z,13.70
2022-11-08T10:00:08.414Z,16.70
2022-11-08T10:10:08.427Z,17.60
2022-11-08T10:20:08.440Z,18.80
2022-11-08T10:30:08.455Z,15.00
2022-11-08T10:40:08.440Z,13.80
2022-11-08T10:50:08.467Z,15.10
2022-11-08T11:00:08.445Z,18.40
2022-11-08T11:10:08.453Z,13.90
2022-11-08T11:20:08.484Z,11.30
2022-11-08T11:30:11.764Z,11.30
2022-11-08T11:40:08.472Z,10.40
2022-11-08T11:50:08.473Z,10.70
2022-11-08T12:00:08.494Z,7.50
2022-11-08T12:10:08.466Z,8.30
2022-11-08T12:20:08.476Z,9.20
2022-11-08T12:30:08.470Z,6.40
2022-11-08T12:40:08.497Z,8.90
2022-11-08T12:50:08.499Z,9.00
2022-11-08T13:00:08.510Z,8.50
2022-11-08T13:10:12.369Z,6.50
2022-11-08T13:20:08.517Z,9.50
2022-11-08T13:30:08.556Z,7.40
2022-11-08T13:40:08.528Z,9.40
2022-11-08T13:50:08.594Z,16.30
2022-11-08T14:00:08.569Z,7.50
2022-11-08T14:10:08.566Z,8.10
2022-11-08T14:20:08.530Z,8.80
2022-11-08T14:30:08.587Z,8.20
2022-11-08T14:40:08.616Z,10.90
2022-11-08T14:50:08.551Z,9.20
2022-11-08T15:00:08.545Z,19.00
2022-11-08T15:10:08.571Z,15.50
2022-11-08T15:20:08.566Z,11.40
2022-11-08T15:30:08.567Z,13.00
2022-11-08T15:40:08.562Z,12.00
2022-11-08T15:50:08.570Z,11.50
2022-11-08T16:00:08.588Z,32.00
2022-11-08T16:10:08.586Z,13.50
2022-11-08T16:20:08.586Z,14.60
2022-11-08T16:30:08.588Z,15.50
2022-11-08T16:40:08.612Z,16.60
2022-11-08T16:50:08.625Z,17.60
2022-11-08T17:00:08.686Z,22.50
2022-11-08T17:10:08.602Z,14.50
2022-11-08T17:20:08.606Z,15.50
2022-11-08T17:30:08.624Z,19.30
2022-11-08T17:40:08.616Z,20.00
2022-11-08T17:50:08.609Z,22.40
2022-11-08T18:00:10.912Z,18.40
2022-11-08T18:10:08.626Z,17.10
2022-11-08T18:20:08.629Z,18.40
2022-11-08T18:30:08.637Z,24.10
2022-11-08T18:40:08.637Z,19.00
2022-11-08T18:50:08.630Z,21.50
2022-11-08T19:00:08.634Z,23.20
2022-11-08T19:20:08.640Z,23.90
2022-11-08T19:30:08.643Z,21.50
2022-11-08T19:40:08.714Z,27.00
2022-11-08T19:50:08.639Z,27.40
2022-11-08T20:00:08.820Z,25.30
2022-11-08T20:10:08.663Z,27.40
2022-11-08T20:20:08.705Z,27.70
2022-11-08T20:30:08.664Z,25.10
2022-11-08T20:40:08.717Z,30.00
2022-11-08T20:50:08.699Z,33.00
2022-11-08T21:00:13.652Z,33.60
2022-11-08T21:10:35.762Z,29.00
2022-11-08T21:20:08.696Z,34.20
2022-11-08T21:30:08.761Z,33.30
2022-11-08T21:40:08.702Z,30.60
2022-11-08T21:50:08.695Z,25.60
2022-11-08T22:00:08.708Z,28.60
2022-11-08T22:10:08.698Z,34.00
2022-11-08T22:20:08.706Z,30.00
2022-11-08T22:30:12.673Z,29.20
2022-11-08T22:40:08.708Z,31.40
2022-11-08T22:50:08.716Z,31.80
2022-11-08T23:00:08.722Z,30.10
2022-11-08T23:10:08.814Z,31.40
2022-11-08T23:20:08.724Z,38.50
2022-11-08T23:30:08.743Z,34.80
2022-11-08T23:40:08.850Z,32.60
2022-11-08T23:50:08.753Z,33.30
